Air Navigation Services of Czech Republic
Airport: LKPJ Updated:  04.03.2024 11:00:53  UTC
 METAR LKPJ 04.03. 11:00 ...
METAR LKPJ 041100Z AUTO 18008KT 130V250 9999 // NCD 14/05 Q1007=